Time;durP1;ratioP1;P1;durP2;ratioP2;P2;SDS_P1;SDS_P2;PMS_P1;PMS_P2;Temp;Humidity;BMP_temperature;BMP_pressure;BME280_temperature;BME280_humidity;BME280_pressure;Samples;Min_cycle;Max_cycle;Signal;HPM_P1;HPM_P2
2022/04/26 03:39:52;;;;;;;;;29.00;27.67;;;;;;;;5057578;28;45708;-86
2022/04/26 03:48:35;;;;;;;;;26.33;25.33;;;;;;;;5035809;28;45460;-79
2022/04/26 03:54:04;;;;;;;;;34.00;31.00;;;;;;;;5041312;28;45380;-82
2022/04/26 03:56:52;;;;;;;;;37.00;33.00;;;;;;;;5036309;28;45797;-84
2022/04/26 04:00:05;;;;;;;;;33.67;29.33;;;;;;;;5036003;28;46056;-84
2022/04/26 04:03:04;;;;;;;;;29.67;28.00;;;;;;;;5004880;28;45666;-85
2022/04/26 04:08:32;;;;;;;;;34.33;30.33;;;;;;;;5015336;28;45867;-81
2022/04/26 04:10:58;;;;;;;;;33.67;28.33;;;;;;;;5011324;27;45558;-76
2022/04/26 04:13:23;;;;;;;;;31.33;28.00;;;;;;;;4971931;28;45738;-81
2022/04/26 04:15:48;;;;;;;;;36.00;29.67;;;;;;;;4996436;27;45802;-76
2022/04/26 04:20:57;;;;;;;;;40.33;33.00;;;;;;;;4980318;27;45484;-77
2022/04/26 04:23:23;;;;;;;;;34.00;27.00;;;;;;;;5013940;27;47022;-76
2022/04/26 04:25:48;;;;;;;;;29.50;27.50;;;;;;;;4996409;27;45517;-76
2022/04/26 04:28:14;;;;;;;;;58.75;46.50;;;;;;;;4992120;27;45447;-82
2022/04/26 04:30:39;;;;;;;;;44.67;34.67;;;;;;;;4981111;27;45720;-82
2022/04/26 04:33:05;;;;;;;;;47.75;39.00;;;;;;;;5016030;27;48742;-82
2022/04/26 04:35:30;;;;;;;;;57.00;43.50;;;;;;;;4998661;27;45354;-81
2022/04/26 04:37:55;;;;;;;;;41.75;32.75;;;;;;;;4978372;27;45439;-82
2022/04/26 04:40:21;;;;;;;;;50.25;40.25;;;;;;;;4981588;27;45473;-77
2022/04/26 04:42:46;;;;;;;;;50.50;38.75;;;;;;;;4993715;27;46332;-79
2022/04/26 04:45:11;;;;;;;;;41.75;32.25;;;;;;;;4985934;27;45469;-76
2022/04/26 04:47:36;;;;;;;;;42.00;34.00;;;;;;;;4991097;27;45600;-84
2022/04/26 04:50:02;;;;;;;;;34.33;31.33;;;;;;;;4989814;27;45939;-83
2022/04/26 04:52:28;;;;;;;;;32.33;29.33;;;;;;;;5013333;27;46370;-76
2022/04/26 04:54:53;;;;;;;;;48.00;36.50;;;;;;;;4992391;27;45430;-82
2022/04/26 04:57:18;;;;;;;;;30.00;30.00;;;;;;;;5036758;27;45720;-82
2022/04/26 04:59:43;;;;;;;;;36.67;30.00;;;;;;;;5026367;27;45505;-83
2022/04/26 05:02:11;;;;;;;;;31.33;26.33;;;;;;;;5007523;28;47061;-78
2022/04/26 05:04:39;;;;;;;;;42.75;36.25;;;;;;;;5012720;27;45443;-77
2022/04/26 05:07:04;;;;;;;;;38.00;33.00;;;;;;;;5021210;27;45211;-82
2022/04/26 05:09:30;;;;;;;;;44.75;35.75;;;;;;;;5052239;27;45590;-83
2022/04/26 05:11:55;;;;;;;;;38.33;32.00;;;;;;;;5045329;27;47798;-77
2022/04/26 05:14:21;;;;;;;;;47.25;36.75;;;;;;;;5084382;27;45699;-81
2022/04/26 05:16:47;;;;;;;;;37.00;32.50;;;;;;;;5093893;27;45329;-82
2022/04/26 05:19:12;;;;;;;;;39.00;32.33;;;;;;;;5024942;27;45921;-78
2022/04/26 05:21:38;;;;;;;;;41.67;34.67;;;;;;;;5036515;27;45564;-82
2022/04/26 05:26:49;;;;;;;;;45.50;33.00;;;;;;;;5032579;27;45549;-79
2022/04/26 05:29:15;;;;;;;;;35.33;31.33;;;;;;;;5058551;27;45488;-81
2022/04/26 05:31:47;;;;;;;;;35.00;31.67;;;;;;;;5054016;27;46213;-78
2022/04/26 05:34:12;;;;;;;;;44.25;33.75;;;;;;;;5025329;27;45883;-78
2022/04/26 05:36:38;;;;;;;;;45.00;34.00;;;;;;;;5037528;27;45464;-79
2022/04/26 05:39:04;;;;;;;;;38.25;33.50;;;;;;;;5049406;27;45982;-77
2022/04/26 05:41:30;;;;;;;;;45.33;35.67;;;;;;;;5029723;27;45369;-83
2022/04/26 05:43:55;;;;;;;;;47.50;35.75;;;;;;;;5035366;27;45168;-82
2022/04/26 05:46:20;;;;;;;;;44.67;35.67;;;;;;;;5020295;27;45120;-81
2022/04/26 05:48:46;;;;;;;;;40.67;32.00;;;;;;;;5034284;27;45493;-79
2022/04/26 05:51:12;;;;;;;;;43.25;34.75;;;;;;;;5069652;27;45449;-79
2022/04/26 05:53:37;;;;;;;;;48.00;38.67;;;;;;;;5027494;27;45693;-81
2022/04/26 05:56:04;;;;;;;;;50.50;39.25;;;;;;;;5060740;27;44743;-80
2022/04/26 05:58:31;;;;;;;;;45.67;35.33;;;;;;;;5061073;27;46537;-78
2022/04/26 06:00:56;;;;;;;;;44.75;35.75;;;;;;;;5036994;27;48388;-79
2022/04/26 06:03:21;;;;;;;;;45.00;36.67;;;;;;;;5045474;27;45112;-80
2022/04/26 06:05:47;;;;;;;;;44.67;35.67;;;;;;;;5006160;27;44777;-79
2022/04/26 06:08:12;;;;;;;;;47.67;37.67;;;;;;;;5041654;27;45479;-81
2022/04/26 06:10:39;;;;;;;;;54.00;40.33;;;;;;;;5029875;27;45613;-80
2022/04/26 06:13:04;;;;;;;;;52.67;43.33;;;;;;;;5022698;27;46042;-81
2022/04/26 06:15:30;;;;;;;;;48.33;39.33;;;;;;;;5021522;27;46065;-80
2022/04/26 06:17:55;;;;;;;;;58.00;43.67;;;;;;;;5001219;27;45413;-79
2022/04/26 06:20:23;;;;;;;;;49.33;37.67;;;;;;;;4992994;28;46864;-80
2022/04/26 06:22:48;;;;;;;;;52.67;38.67;;;;;;;;5023422;28;45523;-75
2022/04/26 06:25:13;;;;;;;;;52.67;42.67;;;;;;;;5006877;28;45929;-79
2022/04/26 06:28:16;;;;;;;;;57.00;42.33;;;;;;;;5011942;27;45283;-86
2022/04/26 06:30:38;;;;;;;;;58.67;42.00;;;;;;;;4999137;28;45814;-83
2022/04/26 06:33:03;;;;;;;;;47.00;39.00;;;;;;;;4997304;28;45549;-82
2022/04/26 06:35:29;;;;;;;;;50.00;38.67;;;;;;;;4999563;28;45484;-78
2022/04/26 06:37:54;;;;;;;;;57.67;42.00;;;;;;;;5014177;28;45705;-77
2022/04/26 06:40:19;;;;;;;;;53.67;42.67;;;;;;;;5014216;28;45402;-80
2022/04/26 06:42:45;;;;;;;;;65.25;48.75;;;;;;;;5041332;27;45484;-83
2022/04/26 06:45:10;;;;;;;;;55.75;42.25;;;;;;;;5012572;28;45403;-78
2022/04/26 06:47:36;;;;;;;;;64.50;45.75;;;;;;;;5016743;27;45365;-78
2022/04/26 06:50:01;;;;;;;;;55.25;43.75;;;;;;;;5001574;27;46389;-83
2022/04/26 06:52:28;;;;;;;;;61.75;46.75;;;;;;;;4994444;27;45811;-82
2022/04/26 06:54:53;;;;;;;;;57.25;45.25;;;;;;;;4999660;28;45371;-81
2022/04/26 06:57:19;;;;;;;;;58.50;44.25;;;;;;;;5000903;28;45368;-81
2022/04/26 06:59:44;;;;;;;;;59.50;45.75;;;;;;;;5000584;28;46489;-81
2022/04/26 07:02:10;;;;;;;;;57.25;46.25;;;;;;;;5012550;27;45318;-81
2022/04/26 07:04:35;;;;;;;;;61.75;47.75;;;;;;;;5045619;27;45325;-81
2022/04/26 07:07:00;;;;;;;;;54.00;43.75;;;;;;;;5019682;28;45712;-81
2022/04/26 07:09:26;;;;;;;;;58.00;45.25;;;;;;;;5018417;27;45292;-82
2022/04/26 07:11:52;;;;;;;;;57.25;42.50;;;;;;;;5007917;28;45381;-80
2022/04/26 07:14:18;;;;;;;;;61.00;44.33;;;;;;;;5026476;28;45385;-77
2022/04/26 07:16:48;;;;;;;;;61.33;43.33;;;;;;;;5013354;27;45643;-77
2022/04/26 07:19:13;;;;;;;;;54.00;40.33;;;;;;;;5003973;28;45486;-76
2022/04/26 07:21:38;;;;;;;;;57.33;44.33;;;;;;;;5018860;28;44822;-76
2022/04/26 07:24:04;;;;;;;;;52.00;42.67;;;;;;;;5016932;28;45631;-81
2022/04/26 07:26:29;;;;;;;;;63.67;47.33;;;;;;;;5010346;28;44959;-78
2022/04/26 07:28:55;;;;;;;;;57.33;46.67;;;;;;;;5002102;27;45369;-78
2022/04/26 07:31:21;;;;;;;;;59.67;44.67;;;;;;;;5006231;28;45631;-81
2022/04/26 07:36:30;;;;;;;;;55.00;43.33;;;;;;;;5017091;28;45762;-77
2022/04/26 07:38:55;;;;;;;;;56.67;43.33;;;;;;;;4998893;28;47066;-77
2022/04/26 07:41:21;;;;;;;;;59.33;42.33;;;;;;;;4989934;28;45583;-76
2022/04/26 07:43:47;;;;;;;;;60.33;44.67;;;;;;;;5001554;28;45852;-78
2022/04/26 07:46:14;;;;;;;;;54.00;43.00;;;;;;;;5016397;28;45385;-81
2022/04/26 07:48:43;;;;;;;;;53.33;41.00;;;;;;;;5025947;28;46296;-83
2022/04/26 07:51:08;;;;;;;;;52.00;39.67;;;;;;;;5005303;28;45362;-84
2022/04/26 07:53:34;;;;;;;;;55.33;45.00;;;;;;;;5012741;27;45300;-81
2022/04/26 07:55:59;;;;;;;;;47.67;38.67;;;;;;;;5020574;27;45468;-82
2022/04/26 07:58:24;;;;;;;;;53.67;41.67;;;;;;;;5021098;28;45334;-81
2022/04/26 08:00:50;;;;;;;;;52.33;41.67;;;;;;;;5004905;28;45338;-81
2022/04/26 08:03:16;;;;;;;;;57.00;43.33;;;;;;;;5010172;27;45726;-81
2022/04/26 08:05:42;;;;;;;;;54.67;43.67;;;;;;;;5004761;28;46005;-84
2022/04/26 08:08:07;;;;;;;;;54.67;43.33;;;;;;;;5019317;28;45216;-81
2022/04/26 08:10:35;;;;;;;;;50.33;42.00;;;;;;;;5021343;28;45686;-83
2022/04/26 08:13:00;;;;;;;;;56.33;43.67;;;;;;;;5018208;28;45468;-79
2022/04/26 08:15:25;;;;;;;;;53.33;42.67;;;;;;;;5019531;28;45279;-78
2022/04/26 08:17:51;;;;;;;;;45.67;38.67;;;;;;;;5008840;28;47396;-79
2022/04/26 08:20:16;;;;;;;;;53.67;41.00;;;;;;;;4990617;28;45778;-85
2022/04/26 08:22:41;;;;;;;;;53.00;40.67;;;;;;;;4997207;28;45512;-82
2022/04/26 08:27:51;;;;;;;;;49.00;38.67;;;;;;;;5008694;28;45663;-78
2022/04/26 08:30:16;;;;;;;;;52.00;40.67;;;;;;;;5014374;28;45772;-84
2022/04/26 08:32:46;;;;;;;;;50.33;40.67;;;;;;;;5008857;28;45810;-82
2022/04/26 08:35:12;;;;;;;;;47.67;38.00;;;;;;;;4999987;28;45819;-78
2022/04/26 08:37:38;;;;;;;;;53.33;39.33;;;;;;;;4993670;28;45999;-83
2022/04/26 08:40:07;;;;;;;;;48.67;37.00;;;;;;;;5002468;28;45507;-76
2022/04/26 08:42:36;;;;;;;;;38.67;34.67;;;;;;;;4997007;28;45408;-77
2022/04/26 08:45:03;;;;;;;;;47.33;35.00;;;;;;;;4995504;28;46168;-77
2022/04/26 08:52:58;;;;;;;;;51.33;39.00;;;;;;;;4997972;28;45445;-82
2022/04/26 08:55:23;;;;;;;;;53.00;39.33;;;;;;;;5021789;28;46724;-78
2022/04/26 08:57:49;;;;;;;;;50.67;38.67;;;;;;;;5001604;28;45978;-81
2022/04/26 09:00:14;;;;;;;;;52.67;42.33;;;;;;;;5002195;28;45658;-82
2022/04/26 09:02:40;;;;;;;;;49.00;38.67;;;;;;;;4993907;28;45809;-84
2022/04/26 09:05:13;;;;;;;;;49.67;40.00;;;;;;;;4999427;27;45769;-79
2022/04/26 09:07:39;;;;;;;;;49.67;38.67;;;;;;;;4988459;27;48367;-78
2022/04/26 09:10:16;;;;;;;;;47.67;39.33;;;;;;;;4997020;28;45906;-84
2022/04/26 09:12:57;;;;;;;;;53.00;39.67;;;;;;;;5003961;27;45468;-78
2022/04/26 09:15:23;;;;;;;;;53.00;39.33;;;;;;;;4992091;28;45976;-83
2022/04/26 09:17:52;;;;;;;;;54.67;42.00;;;;;;;;4997419;28;45651;-79
2022/04/26 09:20:37;;;;;;;;;47.67;36.00;;;;;;;;5014464;28;45694;-83
2022/04/26 09:23:03;;;;;;;;;51.67;40.00;;;;;;;;5082301;27;45366;-78
2022/04/26 09:25:29;;;;;;;;;56.00;42.33;;;;;;;;5007665;28;47125;-83
2022/04/26 09:27:57;;;;;;;;;54.33;42.67;;;;;;;;5025971;28;45959;-81
2022/04/26 09:30:27;;;;;;;;;54.33;40.67;;;;;;;;5006941;28;45452;-85
2022/04/26 09:32:52;;;;;;;;;54.00;39.00;;;;;;;;5001199;28;45399;-78
2022/04/26 09:35:32;;;;;;;;;53.33;41.67;;;;;;;;4997970;28;45992;-83
2022/04/26 09:37:58;;;;;;;;;57.00;40.00;;;;;;;;5001550;28;45485;-79
2022/04/26 09:40:27;;;;;;;;;48.00;37.67;;;;;;;;5014600;28;45434;-77
2022/04/26 09:42:53;;;;;;;;;52.67;40.67;;;;;;;;4992781;27;45773;-79
2022/04/26 09:45:18;;;;;;;;;50.67;38.00;;;;;;;;5020827;28;45795;-79
2022/04/26 09:47:45;;;;;;;;;56.33;44.00;;;;;;;;5019699;27;47167;-83
2022/04/26 09:50:11;;;;;;;;;49.00;38.67;;;;;;;;4997281;28;45725;-84
2022/04/26 09:52:37;;;;;;;;;59.00;43.00;;;;;;;;5013163;27;45468;-80
2022/04/26 09:55:04;;;;;;;;;45.00;36.67;;;;;;;;5008298;28;46028;-78
2022/04/26 09:57:33;;;;;;;;;61.00;46.33;;;;;;;;5002830;28;45437;-81
2022/04/26 10:00:19;;;;;;;;;57.33;44.67;;;;;;;;5018664;28;45418;-84
2022/04/26 10:02:45;;;;;;;;;53.67;40.33;;;;;;;;5010566;28;45482;-80
2022/04/26 10:05:13;;;;;;;;;48.67;37.00;;;;;;;;5015104;28;46813;-78
2022/04/26 10:07:44;;;;;;;;;48.00;37.67;;;;;;;;4995367;28;46383;-83
2022/04/26 10:10:10;;;;;;;;;55.33;42.33;;;;;;;;5005605;28;45288;-79
2022/04/26 10:12:35;;;;;;;;;47.67;37.67;;;;;;;;5001513;28;45722;-79
2022/04/26 10:15:01;;;;;;;;;55.00;41.33;;;;;;;;5011572;27;45627;-79
2022/04/26 10:17:30;;;;;;;;;52.67;40.33;;;;;;;;5016820;27;47182;-79
2022/04/26 10:19:55;;;;;;;;;48.67;37.67;;;;;;;;5019868;28;45537;-78
2022/04/26 10:22:43;;;;;;;;;56.67;43.67;;;;;;;;5005322;28;45473;-83
2022/04/26 10:25:09;;;;;;;;;43.67;37.67;;;;;;;;5030526;28;46357;-82
2022/04/26 10:27:35;;;;;;;;;45.33;36.00;;;;;;;;5021113;27;45424;-79
2022/04/26 10:30:00;;;;;;;;;48.67;38.67;;;;;;;;5009735;27;45399;-84
2022/04/26 10:32:38;;;;;;;;;55.67;41.00;;;;;;;;5029268;27;45048;-77
2022/04/26 10:35:28;;;;;;;;;50.00;39.33;;;;;;;;5031840;27;45128;-75
2022/04/26 10:38:35;;;;;;;;;42.33;33.00;;;;;;;;5024424;28;45740;-87
2022/04/26 10:41:10;;;;;;;;;46.67;35.67;;;;;;;;4946088;28;45506;-83
2022/04/26 10:43:35;;;;;;;;;44.33;36.33;;;;;;;;4945942;28;44878;-82
2022/04/26 10:46:11;;;;;;;;;49.67;39.67;;;;;;;;4991321;28;44820;-83
2022/04/26 10:48:37;;;;;;;;;48.67;36.67;;;;;;;;5009334;27;47353;-83
2022/04/26 10:51:21;;;;;;;;;50.00;38.00;;;;;;;;5008608;28;44894;-82
2022/04/26 10:53:46;;;;;;;;;51.33;38.67;;;;;;;;5009109;28;45611;-82
2022/04/26 10:56:12;;;;;;;;;49.33;37.33;;;;;;;;5026623;28;44815;-82
2022/04/26 10:58:49;;;;;;;;;49.00;37.00;;;;;;;;5009101;27;45680;-85
2022/04/26 11:01:14;;;;;;;;;49.00;38.67;;;;;;;;5029975;28;44772;-84
2022/04/26 11:03:53;;;;;;;;;54.00;42.67;;;;;;;;5035254;27;44817;-83
2022/04/26 11:06:34;;;;;;;;;48.00;36.00;;;;;;;;5026314;27;45103;-78
2022/04/26 11:09:07;;;;;;;;;47.33;38.00;;;;;;;;5025564;27;46998;-77
2022/04/26 11:11:45;;;;;;;;;49.67;38.00;;;;;;;;5024693;28;45364;-78
2022/04/26 11:14:10;;;;;;;;;39.33;34.67;;;;;;;;5021096;28;45815;-83
2022/04/26 11:16:36;;;;;;;;;52.67;37.33;;;;;;;;5021738;28;46079;-82
2022/04/26 11:19:01;;;;;;;;;41.67;33.33;;;;;;;;5006841;28;45251;-83
2022/04/26 11:21:27;;;;;;;;;39.67;35.33;;;;;;;;5007913;28;45862;-82
2022/04/26 11:29:34;;;;;;;;;45.67;38.33;;;;;;;;5043449;27;45464;-82
2022/04/26 11:32:00;;;;;;;;;37.33;33.67;;;;;;;;5056670;27;44871;-79
2022/04/26 11:34:41;;;;;;;;;49.67;36.33;;;;;;;;5008998;28;45488;-81
2022/04/26 11:37:07;;;;;;;;;52.67;39.67;;;;;;;;5007638;27;45316;-77
2022/04/26 11:39:40;;;;;;;;;27.33;23.33;;;;;;;;5020683;27;46392;-82
2022/04/26 11:42:06;;;;;;;;;35.00;32.00;;;;;;;;5010544;28;45622;-81
2022/04/26 11:44:31;;;;;;;;;42.67;34.67;;;;;;;;5011368;28;45960;-82
2022/04/26 11:46:57;;;;;;;;;45.67;36.33;;;;;;;;5007357;27;45791;-78
2022/04/26 11:49:39;;;;;;;;;20.67;16.33;;;;;;;;5019299;27;46174;-80
2022/04/26 11:52:04;;;;;;;;;39.67;34.33;;;;;;;;5004101;27;45438;-77
2022/04/26 11:54:38;;;;;;;;;42.00;33.67;;;;;;;;5016302;27;45946;-77
2022/04/26 11:57:04;;;;;;;;;34.67;32.67;;;;;;;;5008407;28;46993;-82
2022/04/26 11:59:31;;;;;;;;;37.33;34.00;;;;;;;;5015282;28;47170;-78
2022/04/26 12:01:57;;;;;;;;;10.33;7.00;;;;;;;;4993155;28;45442;-81
2022/04/26 12:04:22;;;;;;;;;33.67;26.00;;;;;;;;5002316;27;45529;-79
2022/04/26 12:06:50;;;;;;;;;33.00;28.33;;;;;;;;5005224;28;46358;-84
2022/04/26 12:09:16;;;;;;;;;34.67;32.67;;;;;;;;5008244;27;45585;-78
2022/04/26 12:11:44;;;;;;;;;35.33;31.00;;;;;;;;4998073;28;45518;-79
2022/04/26 12:14:17;;;;;;;;;32.00;28.67;;;;;;;;4989749;28;45862;-83
2022/04/26 12:17:07;;;;;;;;;34.67;31.33;;;;;;;;4996805;28;45898;-85
2022/04/26 12:19:44;;;;;;;;;40.67;31.67;;;;;;;;5021929;27;47068;-86
2022/04/26 12:22:26;;;;;;;;;37.00;30.67;;;;;;;;4983588;27;46191;-84
2022/04/26 12:24:52;;;;;;;;;33.00;29.33;;;;;;;;4980078;27;45653;-90
2022/04/26 12:34:26;;;;;;;;;29.00;25.00;;;;;;;;4973506;28;45667;-82
2022/04/26 12:36:58;;;;;;;;;26.67;23.33;;;;;;;;4904746;28;45565;-83
2022/04/26 12:52:24;;;;;;;;;28.67;22.67;;;;;;;;4958561;28;45636;-85
2022/04/26 12:55:12;;;;;;;;;31.67;29.67;;;;;;;;4959903;28;47498;-83
2022/04/26 13:01:20;;;;;;;;;25.67;24.33;;;;;;;;4917371;28;45580;-85
2022/04/26 13:04:25;;;;;;;;;28.00;21.67;;;;;;;;4917454;28;46041;-84
2022/04/26 13:10:08;;;;;;;;;21.33;20.00;;;;;;;;4954627;28;45866;-85
2022/04/26 13:13:05;;;;;;;;;24.33;21.33;;;;;;;;4949055;28;45419;-82
2022/04/26 13:18:59;;;;;;;;;;;;;;;;;;;;;
2022/04/26 13:21:30;;;;;;;;;28.00;25.00;;;;;;;;4989227;28;72210;-85
2022/04/26 13:24:46;;;;;;;;;21.67;19.67;;;;;;;;4988601;28;45907;-83
2022/04/26 13:27:18;;;;;;;;;21.67;19.67;;;;;;;;5005481;28;45776;-82
2022/04/26 13:36:21;;;;;;;;;21.00;19.67;;;;;;;;4953117;28;45588;-89
2022/04/26 13:39:12;;;;;;;;;23.33;22.67;;;;;;;;5000557;28;45927;-84
2022/04/26 13:44:56;;;;;;;;;22.33;21.33;;;;;;;;5015362;27;45516;-89
2022/04/26 13:47:41;;;;;;;;;24.67;19.67;;;;;;;;4987319;28;45330;-88
2022/04/26 13:50:16;;;;;;;;;26.67;24.33;;;;;;;;4986466;27;45828;-89
2022/04/26 13:52:44;;;;;;;;;20.67;20.33;;;;;;;;4970049;28;45852;-85
2022/04/26 13:55:32;;;;;;;;;21.00;20.00;;;;;;;;4964966;28;46054;-82
2022/04/26 13:58:16;;;;;;;;;26.67;21.33;;;;;;;;4990228;27;46052;-89
2022/04/26 14:01:29;;;;;;;;;;;;;;;;;;;;;
2022/04/26 14:04:06;;;;;;;;;;;;;;;;;;;;;
2022/04/26 14:06:32;;;;;;;;;21.67;21.33;;;;;;;;5018331;28;74019;-84
2022/04/26 14:08:57;;;;;;;;;26.33;22.33;;;;;;;;5051214;27;45398;-83
2022/04/26 14:11:22;;;;;;;;;24.33;20.00;;;;;;;;5004869;28;45790;-78
2022/04/26 14:21:59;;;;;;;;;18.67;18.67;;;;;;;;4987345;28;45718;-79
2022/04/26 14:24:25;;;;;;;;;20.33;17.67;;;;;;;;4987771;28;46937;-82
2022/04/26 14:26:51;;;;;;;;;21.00;19.67;;;;;;;;4991144;28;45454;-84
2022/04/26 14:29:16;;;;;;;;;19.00;18.00;;;;;;;;5000745;27;45888;-84
2022/04/26 14:31:42;;;;;;;;;17.67;17.67;;;;;;;;5021434;27;45627;-85
2022/04/26 14:34:08;;;;;;;;;20.33;19.33;;;;;;;;4991151;28;47072;-85
2022/04/26 14:36:33;;;;;;;;;19.00;16.00;;;;;;;;5019414;27;45902;-83
2022/04/26 14:38:59;;;;;;;;;18.33;17.67;;;;;;;;5005802;27;45421;-79
2022/04/26 14:41:26;;;;;;;;;17.33;16.33;;;;;;;;5039916;27;45655;-79
2022/04/26 14:43:51;;;;;;;;;15.00;15.00;;;;;;;;4995935;27;46718;-83
2022/04/26 14:46:17;;;;;;;;;16.67;15.67;;;;;;;;4999883;27;46056;-83
2022/04/26 14:48:44;;;;;;;;;17.67;16.33;;;;;;;;4994335;27;45551;-80
2022/04/26 14:51:10;;;;;;;;;16.00;15.67;;;;;;;;5001819;27;45542;-79
2022/04/26 14:53:35;;;;;;;;;17.67;16.67;;;;;;;;5008513;27;46179;-78
2022/04/26 14:56:00;;;;;;;;;19.00;16.67;;;;;;;;4996473;27;45508;-81
2022/04/26 14:58:26;;;;;;;;;16.67;16.67;;;;;;;;5008222;28;45398;-83
2022/04/26 15:00:52;;;;;;;;;16.00;16.00;;;;;;;;4995824;28;46707;-83
2022/04/26 15:03:17;;;;;;;;;18.33;14.67;;;;;;;;5007567;27;45827;-83
2022/04/26 15:05:43;;;;;;;;;16.33;14.00;;;;;;;;5019075;27;45476;-77
2022/04/26 15:10:52;;;;;;;;;14.67;12.00;;;;;;;;4991314;27;45745;-82
2022/04/26 15:18:45;;;;;;;;;9.00;8.67;;;;;;;;4997937;27;45503;-83
2022/04/26 15:21:10;;;;;;;;;15.33;11.00;;;;;;;;5001181;27;45510;-82
2022/04/26 15:23:36;;;;;;;;;11.33;10.67;;;;;;;;5007460;27;46439;-84
2022/04/26 15:26:03;;;;;;;;;10.33;10.33;;;;;;;;4993295;27;46578;-81
2022/04/26 15:28:30;;;;;;;;;13.67;10.33;;;;;;;;4995297;27;45945;-80
2022/04/26 15:30:55;;;;;;;;;18.00;16.00;;;;;;;;4991466;28;45809;-78
2022/04/26 15:33:22;;;;;;;;;18.67;17.00;;;;;;;;5005636;27;46572;-85
2022/04/26 15:35:47;;;;;;;;;11.33;10.67;;;;;;;;4996420;27;45453;-84
2022/04/26 15:38:13;;;;;;;;;11.67;10.67;;;;;;;;4994373;28;45481;-83
2022/04/26 15:40:43;;;;;;;;;14.00;10.67;;;;;;;;4991540;28;46103;-82
2022/04/26 15:43:29;;;;;;;;;12.00;10.33;;;;;;;;4987256;28;46951;-79
2022/04/26 15:45:54;;;;;;;;;15.33;13.67;;;;;;;;5016871;28;45555;-78
2022/04/26 15:48:20;;;;;;;;;19.00;12.67;;;;;;;;5008333;28;45392;-80
2022/04/26 15:50:45;;;;;;;;;12.00;12.00;;;;;;;;5010314;27;45790;-83
2022/04/26 15:53:11;;;;;;;;;13.67;10.33;;;;;;;;5008601;27;45833;-80
2022/04/26 15:55:42;;;;;;;;;10.67;8.00;;;;;;;;5014701;27;45909;-81
2022/04/26 16:01:25;;;;;;;;;14.00;13.00;;;;;;;;5009965;28;46046;-79
2022/04/26 16:03:54;;;;;;;;;9.67;9.00;;;;;;;;5006916;27;45597;-79
2022/04/26 16:06:28;;;;;;;;;12.00;12.00;;;;;;;;5002386;27;45652;-83
2022/04/26 16:20:28;;;;;;;;;13.00;11.67;;;;;;;;5036777;27;45775;-83
2022/04/26 16:22:35;;;;;;;;;11.67;11.00;;;;;;;;5015613;27;45617;-82
2022/04/26 16:25:01;;;;;;;;;10.33;10.33;;;;;;;;5022885;27;46556;-80
2022/04/26 16:27:27;;;;;;;;;12.33;8.67;;;;;;;;5025171;27;45480;-82
2022/04/26 16:29:52;;;;;;;;;12.00;11.00;;;;;;;;5025099;27;45699;-77
2022/04/26 16:32:17;;;;;;;;;16.33;15.00;;;;;;;;5021604;27;46051;-77
2022/04/26 16:34:42;;;;;;;;;14.33;13.00;;;;;;;;5023216;27;46042;-77
2022/04/26 16:37:08;;;;;;;;;14.33;10.67;;;;;;;;5004668;27;45495;-86
2022/04/26 16:39:33;;;;;;;;;17.00;14.33;;;;;;;;5015628;27;45820;-86
2022/04/26 16:41:59;;;;;;;;;16.33;15.33;;;;;;;;5016024;28;45511;-85
2022/04/26 16:44:24;;;;;;;;;16.67;14.33;;;;;;;;5022550;27;47400;-78
2022/04/26 16:46:49;;;;;;;;;19.00;14.33;;;;;;;;5018611;27;45535;-81
2022/04/26 16:49:15;;;;;;;;;35.00;29.00;;;;;;;;5000613;27;46646;-83
2022/04/26 16:51:40;;;;;;;;;18.33;18.00;;;;;;;;5011488;27;45610;-82
2022/04/26 16:54:06;;;;;;;;;15.33;13.00;;;;;;;;5018080;27;45477;-86
2022/04/26 16:56:41;;;;;;;;;17.33;14.67;;;;;;;;5011400;27;45338;-86
2022/04/26 16:59:20;;;;;;;;;26.33;23.33;;;;;;;;5005492;27;45388;-87
2022/04/26 17:01:45;;;;;;;;;18.33;18.33;;;;;;;;4998131;27;45655;-88
2022/04/26 17:04:17;;;;;;;;;17.00;16.00;;;;;;;;5011591;27;46200;-87
2022/04/26 17:06:42;;;;;;;;;16.00;13.00;;;;;;;;4995247;27;45782;-82
2022/04/26 17:09:08;;;;;;;;;13.00;13.00;;;;;;;;5010320;28;46840;-89
2022/04/26 17:11:48;;;;;;;;;16.67;14.33;;;;;;;;4999571;27;46098;-88
2022/04/26 17:14:17;;;;;;;;;17.00;12.33;;;;;;;;4999124;27;46691;-85
2022/04/26 17:16:48;;;;;;;;;13.00;11.00;;;;;;;;4987222;27;45826;-83
2022/04/26 17:19:23;;;;;;;;;9.00;9.00;;;;;;;;4988415;27;45503;-85
2022/04/26 17:21:49;;;;;;;;;14.67;14.67;;;;;;;;5010726;28;45783;-84
2022/04/26 17:26:59;;;;;;;;;17.00;15.00;;;;;;;;5000456;28;45570;-85
2022/04/26 17:29:24;;;;;;;;;21.67;18.67;;;;;;;;4987636;27;45947;-81
2022/04/26 17:31:53;;;;;;;;;18.33;15.67;;;;;;;;5001503;27;45486;-83
2022/04/26 17:34:18;;;;;;;;;16.00;15.00;;;;;;;;5000857;27;45533;-83
2022/04/26 17:36:44;;;;;;;;;14.00;12.33;;;;;;;;5000928;27;45983;-84
2022/04/26 17:39:12;;;;;;;;;14.33;14.33;;;;;;;;4995228;28;45762;-77
2022/04/26 17:41:40;;;;;;;;;13.67;13.67;;;;;;;;4997086;28;45534;-79
2022/04/26 17:44:06;;;;;;;;;15.00;14.00;;;;;;;;5009038;28;46252;-84
2022/04/26 17:46:31;;;;;;;;;15.67;14.67;;;;;;;;4998372;27;45492;-84
2022/04/26 17:48:57;;;;;;;;;15.00;13.67;;;;;;;;4989382;28;45864;-80
2022/04/26 17:51:23;;;;;;;;;16.33;14.67;;;;;;;;4998120;27;45377;-82
2022/04/26 17:56:34;;;;;;;;;16.00;14.33;;;;;;;;5006943;28;45565;-83
2022/04/26 17:59:02;;;;;;;;;17.33;15.33;;;;;;;;4995002;28;45813;-83
2022/04/26 18:01:27;;;;;;;;;17.00;15.67;;;;;;;;5014237;27;45854;-82
2022/04/26 18:03:53;;;;;;;;;18.67;13.67;;;;;;;;5010214;27;45506;-83
2022/04/26 18:06:18;;;;;;;;;17.67;16.67;;;;;;;;5009263;27;45850;-82
2022/04/26 18:08:44;;;;;;;;;15.33;13.00;;;;;;;;5063570;27;45907;-83
2022/04/26 18:11:10;;;;;;;;;15.00;15.00;;;;;;;;5019932;27;45389;-84
2022/04/26 18:13:53;;;;;;;;;16.67;14.33;;;;;;;;5014125;27;45607;-85
2022/04/26 18:16:22;;;;;;;;;12.67;10.67;;;;;;;;5016393;27;45629;-85
2022/04/26 18:18:47;;;;;;;;;19.33;17.67;;;;;;;;5003979;27;45778;-84
2022/04/26 18:21:13;;;;;;;;;18.00;16.33;;;;;;;;5029758;27;45350;-84
2022/04/26 18:23:38;;;;;;;;;23.00;15.67;;;;;;;;5002359;28;46012;-84
2022/04/26 18:26:13;;;;;;;;;16.67;14.00;;;;;;;;4991342;27;45872;-84
2022/04/26 18:28:41;;;;;;;;;21.33;17.00;;;;;;;;5016418;27;45532;-85
2022/04/26 18:31:11;;;;;;;;;16.33;16.00;;;;;;;;5017807;27;46862;-87
2022/04/26 18:33:37;;;;;;;;;18.33;16.33;;;;;;;;5033498;27;45721;-84
2022/04/26 18:36:04;;;;;;;;;17.67;17.67;;;;;;;;5021999;27;46501;-85
2022/04/26 18:38:29;;;;;;;;;16.33;15.33;;;;;;;;5016437;27;45990;-84
2022/04/26 18:40:55;;;;;;;;;18.00;15.67;;;;;;;;5002752;27;45785;-82
2022/04/26 18:43:20;;;;;;;;;18.67;18.33;;;;;;;;5005381;27;45453;-80
2022/04/26 18:45:46;;;;;;;;;20.00;19.00;;;;;;;;5003638;27;45850;-81
2022/04/26 18:48:11;;;;;;;;;14.33;14.00;;;;;;;;5040677;27;45519;-80
2022/04/26 18:50:37;;;;;;;;;15.67;14.67;;;;;;;;4991035;27;46476;-80
2022/04/26 18:53:02;;;;;;;;;16.33;15.33;;;;;;;;4997282;28;46758;-80
2022/04/26 18:55:28;;;;;;;;;21.00;19.67;;;;;;;;5002821;27;45522;-80
2022/04/26 18:57:53;;;;;;;;;21.67;18.33;;;;;;;;5019443;27;45476;-81
2022/04/26 19:00:18;;;;;;;;;16.67;15.00;;;;;;;;5023675;27;45933;-81
2022/04/26 19:02:44;;;;;;;;;16.67;15.67;;;;;;;;5017777;27;45579;-82
2022/04/26 19:05:09;;;;;;;;;21.00;20.33;;;;;;;;5005964;28;45483;-81
2022/04/26 19:07:35;;;;;;;;;23.33;19.00;;;;;;;;5009063;27;45805;-82
2022/04/26 19:12:44;;;;;;;;;15.67;14.00;;;;;;;;5027292;27;45906;-83
2022/04/26 19:15:10;;;;;;;;;23.33;20.67;;;;;;;;5010434;28;45421;-83
2022/04/26 19:17:35;;;;;;;;;21.33;19.67;;;;;;;;5011967;28;45758;-82
2022/04/26 19:20:00;;;;;;;;;19.00;19.00;;;;;;;;4995518;28;46128;-83
2022/04/26 19:22:27;;;;;;;;;20.67;18.67;;;;;;;;4996192;28;47169;-82
2022/04/26 19:24:53;;;;;;;;;22.33;19.33;;;;;;;;5005053;28;45628;-82
2022/04/26 19:27:18;;;;;;;;;15.00;14.67;;;;;;;;5072266;27;45457;-82
2022/04/26 19:29:43;;;;;;;;;22.33;18.67;;;;;;;;5101424;27;45406;-82
2022/04/26 19:32:08;;;;;;;;;26.00;18.33;;;;;;;;5098782;27;45649;-81
2022/04/26 19:34:34;;;;;;;;;20.00;16.67;;;;;;;;5042857;28;45430;-81
2022/04/26 19:36:59;;;;;;;;;17.33;16.67;;;;;;;;4997866;28;45960;-81
2022/04/26 19:39:24;;;;;;;;;17.33;17.00;;;;;;;;4996925;28;45555;-83
2022/04/26 19:41:49;;;;;;;;;19.00;18.67;;;;;;;;5011504;28;45987;-82
2022/04/26 19:44:15;;;;;;;;;20.00;17.33;;;;;;;;5014567;27;45887;-82
2022/04/26 19:46:40;;;;;;;;;17.67;17.67;;;;;;;;4995292;27;45880;-82
2022/04/26 19:49:05;;;;;;;;;14.67;14.67;;;;;;;;5015097;28;45934;-82
2022/04/26 19:51:34;;;;;;;;;16.00;16.00;;;;;;;;5016366;28;46072;-82
2022/04/26 19:53:59;;;;;;;;;14.67;13.33;;;;;;;;5016323;28;45815;-82
2022/04/26 19:56:31;;;;;;;;;18.33;17.00;;;;;;;;5017698;28;45690;-82
2022/04/26 19:58:57;;;;;;;;;20.00;18.00;;;;;;;;4999714;28;45890;-82
2022/04/26 20:01:22;;;;;;;;;18.67;17.67;;;;;;;;5016165;28;45516;-81